Time;durP1;ratioP1;P1;durP2;ratioP2;P2;SDS_P1;SDS_P2;PMS_P1;PMS_P2;Temp;Humidity;BMP_temperature;BMP_pressure;BME280_temperature;BME280_humidity;BME280_pressure;Samples;Min_cycle;Max_cycle;Signal;HPM_P1;HPM_P2
2023/04/04 00:00:01;;;;;;;3.47;1.70;;;4.10;1.00;;;;;;4993755;28;20191;-72
2023/04/04 00:02:26;;;;;;;2.13;1.93;;;4.10;1.00;;;;;;4997257;28;20216;-74
2023/04/04 00:04:52;;;;;;;4.20;2.30;;;4.10;1.00;;;;;;5012256;28;20182;-74
2023/04/04 00:07:18;;;;;;;3.87;1.70;;;4.10;1.00;;;;;;5008781;28;20206;-74
2023/04/04 00:09:44;;;;;;;3.20;1.70;;;4.10;1.00;;;;;;4996000;28;20422;-74
2023/04/04 00:12:09;;;;;;;2.57;1.80;;;4.00;1.00;;;;;;5002135;28;20261;-74
2023/04/04 00:14:35;;;;;;;6.00;2.07;;;4.00;1.00;;;;;;5001952;28;20261;-74
2023/04/04 00:17:00;;;;;;;3.10;1.57;;;3.90;1.00;;;;;;4998384;28;20264;-74
2023/04/04 00:19:26;;;;;;;3.80;2.00;;;3.90;1.00;;;;;;5015184;28;20179;-74
2023/04/04 00:21:51;;;;;;;5.30;1.73;;;3.90;1.00;;;;;;4995612;28;20270;-74
2023/04/04 00:24:17;;;;;;;2.50;1.60;;;3.90;1.00;;;;;;5019893;28;20669;-74
2023/04/04 00:26:42;;;;;;;2.10;1.90;;;3.90;1.00;;;;;;5011018;28;20257;-74
2023/04/04 00:29:08;;;;;;;6.83;2.00;;;3.90;1.00;;;;;;4988265;28;20187;-74
2023/04/04 00:31:34;;;;;;;3.53;2.33;;;3.80;1.00;;;;;;5015747;28;20178;-73
2023/04/04 00:33:59;;;;;;;2.03;1.80;;;3.90;1.00;;;;;;4993937;28;20187;-72
2023/04/04 00:36:25;;;;;;;2.57;1.80;;;3.80;1.00;;;;;;5013055;28;20182;-74
2023/04/04 00:38:51;;;;;;;5.80;1.70;;;3.80;1.00;;;;;;5025917;28;20201;-75
2023/04/04 00:41:17;;;;;;;2.57;1.80;;;3.80;1.00;;;;;;5000123;28;20580;-74
2023/04/04 00:43:43;;;;;;;3.97;1.90;;;3.80;1.00;;;;;;4997226;28;20188;-74
2023/04/04 00:46:10;;;;;;;4.10;1.97;;;3.80;1.00;;;;;;5007630;28;20572;-74
2023/04/04 00:48:36;;;;;;;5.57;1.90;;;3.80;1.00;;;;;;5009654;28;21091;-73
2023/04/04 00:51:01;;;;;;;3.53;2.33;;;3.80;1.00;;;;;;5004994;28;20449;-73
2023/04/04 00:53:27;;;;;;;2.93;1.60;;;3.80;1.00;;;;;;5016057;28;20175;-73
2023/04/04 00:55:52;;;;;;;3.23;1.60;;;3.80;1.00;;;;;;5004014;28;20660;-74
2023/04/04 00:58:18;;;;;;;4.80;1.80;;;3.80;1.00;;;;;;5006676;28;20269;-74
2023/04/04 01:00:44;;;;;;;5.10;2.10;;;3.70;1.00;;;;;;5011956;28;20179;-74
2023/04/04 01:03:11;;;;;;;4.63;2.30;;;3.70;1.00;;;;;;4995751;28;20605;-73
2023/04/04 01:05:37;;;;;;;3.37;2.40;;;3.70;1.00;;;;;;4994946;28;20183;-73
2023/04/04 01:08:03;;;;;;;2.73;1.90;;;3.70;1.00;;;;;;4996851;28;20470;-73
2023/04/04 01:10:33;;;;;;;4.40;1.60;;;3.60;1.00;;;;;;5014876;28;20437;-75
2023/04/04 01:12:59;;;;;;;3.97;2.00;;;3.60;1.00;;;;;;5012451;28;20286;-73
2023/04/04 01:15:25;;;;;;;3.63;1.90;;;3.60;1.00;;;;;;4996880;28;20488;-73
2023/04/04 01:17:54;;;;;;;1.97;1.63;;;3.60;1.00;;;;;;4992099;28;20986;-72
2023/04/04 01:20:24;;;;;;;3.60;1.87;;;3.50;1.00;;;;;;5012246;28;20724;-74
2023/04/04 01:22:52;;;;;;;1.80;1.60;;;3.50;1.00;;;;;;5005289;28;20800;-74
2023/04/04 01:25:24;;;;;;;2.60;1.70;;;3.50;1.00;;;;;;5006910;28;20437;-74
2023/04/04 01:27:50;;;;;;;2.73;2.00;;;4.00;1.00;;;;;;5000996;28;20465;-74
2023/04/04 01:30:17;;;;;;;6.30;2.20;;;3.60;1.00;;;;;;4993728;28;20430;-74
2023/04/04 01:33:09;;;;;;;4.37;2.10;;;3.50;1.00;;;;;;4989072;28;20214;-73
2023/04/04 01:35:54;;;;;;;3.80;1.70;;;3.40;1.00;;;;;;4989374;28;20537;-74
2023/04/04 01:38:24;;;;;;;3.23;1.70;;;3.50;1.00;;;;;;5023771;28;20205;-74
2023/04/04 01:40:54;;;;;;;2.30;1.80;;;3.40;1.00;;;;;;5020840;28;20432;-74
2023/04/04 01:43:20;;;;;;;2.97;2.00;;;3.40;1.00;;;;;;4997113;28;20951;-73
2023/04/04 01:45:45;;;;;;;2.50;1.70;;;3.40;1.00;;;;;;4999937;28;20446;-73
2023/04/04 01:48:15;;;;;;;2.60;1.83;;;3.30;1.00;;;;;;4974135;28;20318;-74
2023/04/04 01:50:40;;;;;;;3.47;1.70;;;3.30;1.00;;;;;;4997398;28;20532;-73
2023/04/04 01:53:06;;;;;;;3.47;1.63;;;3.20;1.00;;;;;;5000131;28;20529;-73
2023/04/04 01:55:32;;;;;;;4.27;1.90;;;3.20;1.00;;;;;;4993496;28;20192;-74
2023/04/04 01:57:57;;;;;;;2.30;1.80;;;3.20;1.00;;;;;;5006395;28;20297;-74
2023/04/04 02:00:23;;;;;;;2.83;1.90;;;3.20;1.00;;;;;;4997114;28;20305;-73
2023/04/04 02:02:49;;;;;;;1.80;1.30;;;3.20;1.00;;;;;;4999163;28;20186;-74
2023/04/04 02:05:15;;;;;;;2.87;2.07;;;3.10;1.00;;;;;;5004417;28;20190;-73
2023/04/04 02:07:40;;;;;;;3.07;1.90;;;3.10;1.00;;;;;;5003109;28;20468;-74
2023/04/04 02:10:06;;;;;;;2.77;1.53;;;3.00;1.00;;;;;;5021729;28;20188;-74
2023/04/04 02:12:32;;;;;;;4.60;1.83;;;3.10;1.00;;;;;;4999351;28;20187;-74
2023/04/04 02:14:58;;;;;;;3.50;2.07;;;3.10;1.00;;;;;;5004418;28;20434;-74
2023/04/04 02:17:25;;;;;;;5.97;2.37;;;3.00;1.00;;;;;;5006707;28;20212;-74
2023/04/04 02:19:51;;;;;;;4.20;2.10;;;3.00;1.00;;;;;;5004893;28;20193;-74
2023/04/04 02:22:17;;;;;;;3.53;2.07;;;3.00;1.00;;;;;;5008673;28;20454;-74
2023/04/04 02:24:42;;;;;;;3.33;2.00;;;3.00;1.00;;;;;;5014290;28;20477;-74
2023/04/04 02:27:08;;;;;;;7.43;2.00;;;3.00;1.00;;;;;;5009791;28;20238;-73
2023/04/04 02:29:34;;;;;;;3.30;2.03;;;3.00;1.00;;;;;;4999848;28;20285;-80
2023/04/04 02:31:59;;;;;;;3.23;1.90;;;2.90;1.00;;;;;;4998476;28;20191;-73
2023/04/04 02:34:25;;;;;;;4.47;2.53;;;3.00;1.00;;;;;;5007751;28;20182;-74
2023/04/04 02:36:51;;;;;;;2.77;1.73;;;2.90;1.00;;;;;;5011806;28;20292;-74
2023/04/04 02:39:16;;;;;;;2.30;1.80;;;2.90;1.00;;;;;;5004407;28;20223;-73
2023/04/04 02:41:42;;;;;;;4.03;2.10;;;2.90;1.00;;;;;;5015042;28;20185;-73
2023/04/04 02:44:09;;;;;;;4.30;2.40;;;2.90;1.00;;;;;;5003650;28;20561;-73
2023/04/04 02:46:34;;;;;;;3.30;2.17;;;2.90;1.00;;;;;;5007685;28;20326;-74
2023/04/04 02:49:00;;;;;;;2.67;1.90;;;2.80;1.00;;;;;;4997306;28;20485;-74
2023/04/04 02:51:26;;;;;;;2.47;1.80;;;2.80;1.00;;;;;;5000313;28;20652;-74
2023/04/04 02:53:52;;;;;;;4.00;1.93;;;2.80;1.00;;;;;;5011591;28;20442;-73
2023/04/04 02:56:18;;;;;;;3.30;1.70;;;2.80;1.00;;;;;;5000933;28;20191;-74
2023/04/04 02:58:43;;;;;;;1.90;1.63;;;2.80;1.00;;;;;;5068048;22;20612;-74
2023/04/04 03:01:09;;;;;;;2.13;1.93;;;2.80;1.00;;;;;;5013445;28;20287;-74
2023/04/04 03:03:35;;;;;;;6.13;2.00;;;2.80;1.00;;;;;;5016095;28;20205;-75
2023/04/04 03:06:01;;;;;;;2.20;1.90;;;2.70;1.00;;;;;;5013707;28;20179;-75
2023/04/04 03:10:54;;;;;;;5.03;2.10;;;2.70;1.00;;;;;;4968420;28;20192;-73
2023/04/04 03:13:20;;;;;;;5.07;2.30;;;2.70;1.00;;;;;;4967370;28;20486;-73
2023/04/04 03:15:45;;;;;;;4.73;2.00;;;2.60;1.00;;;;;;4970327;28;20606;-73
2023/04/04 03:18:11;;;;;;;5.20;2.90;;;2.60;1.00;;;;;;4968313;28;20637;-73
2023/04/04 03:20:37;;;;;;;3.90;2.93;;;2.60;1.00;;;;;;4970696;28;20179;-74
2023/04/04 03:23:06;;;;;;;11.17;4.50;;;2.60;1.00;;;;;;5210321;22;20667;-76
2023/04/04 03:25:32;;;;;;;5.67;2.80;;;2.60;1.00;;;;;;5023432;28;20198;-73
2023/04/04 03:27:57;;;;;;;5.87;3.00;;;2.60;1.00;;;;;;5018127;28;20465;-74
2023/04/04 03:30:23;;;;;;;3.40;2.70;;;2.60;1.00;;;;;;5010729;28;20191;-73
2023/04/04 03:32:49;;;;;;;6.27;2.47;;;2.50;1.00;;;;;;5004700;28;20642;-73
2023/04/04 03:35:15;;;;;;;4.13;2.40;;;2.50;1.00;;;;;;4992211;28;20183;-73
2023/04/04 03:37:41;;;;;;;3.40;1.97;;;2.50;1.00;;;;;;5007600;28;20565;-73
2023/04/04 03:40:08;;;;;;;2.30;2.00;;;2.50;1.00;;;;;;5073807;22;20225;-75
2023/04/04 03:42:33;;;;;;;2.50;2.20;;;2.50;1.00;;;;;;5027343;28;20544;-75
2023/04/04 03:44:59;;;;;;;6.20;2.20;;;2.50;1.00;;;;;;5030154;28;20531;-75
2023/04/04 03:47:25;;;;;;;3.73;2.10;;;2.50;1.00;;;;;;5038121;28;20208;-75
2023/04/04 03:49:51;;;;;;;2.13;1.83;;;2.40;1.00;;;;;;5038721;28;20204;-75
2023/04/04 03:52:17;;;;;;;3.83;2.10;;;2.40;1.00;;;;;;5045697;28;20178;-75
2023/04/04 03:54:43;;;;;;;2.37;1.80;;;2.40;1.00;;;;;;5039537;28;20472;-75
2023/04/04 03:57:09;;;;;;;4.27;2.33;;;2.40;1.00;;;;;;5039480;28;20459;-75
2023/04/04 03:59:34;;;;;;;3.00;2.00;;;2.30;1.00;;;;;;5034000;28;20455;-75
2023/04/04 04:02:00;;;;;;;3.93;2.13;;;2.30;1.00;;;;;;5031417;28;20223;-75
2023/04/04 04:04:25;;;;;;;2.60;2.17;;;2.40;1.00;;;;;;5029299;28;20186;-75
2023/04/04 04:06:51;;;;;;;3.23;1.90;;;2.30;1.00;;;;;;5031615;28;20530;-75
2023/04/04 04:09:17;;;;;;;4.37;2.07;;;2.30;1.00;;;;;;5029466;28;20288;-75
2023/04/04 04:11:43;;;;;;;3.80;2.10;;;2.30;1.00;;;;;;5039681;28;20181;-73
2023/04/04 04:14:08;;;;;;;3.30;1.77;;;2.30;1.00;;;;;;5030801;28;20437;-75
2023/04/04 04:16:37;;;;;;;3.93;2.17;;;2.30;1.00;;;;;;5031389;28;20178;-75
2023/04/04 04:19:03;;;;;;;2.70;1.97;;;2.30;1.00;;;;;;5037707;28;20200;-74
2023/04/04 04:21:29;;;;;;;7.30;2.27;;;2.30;1.00;;;;;;5029746;28;20428;-75
2023/04/04 04:23:54;;;;;;;4.33;2.00;;;2.30;1.00;;;;;;5029812;28;20192;-76
2023/04/04 04:26:20;;;;;;;3.23;2.10;;;2.20;1.00;;;;;;5037002;28;20188;-76
2023/04/04 04:28:47;;;;;;;2.83;1.83;;;2.20;1.00;;;;;;5030173;28;20265;-75
2023/04/04 04:31:12;;;;;;;3.57;1.87;;;2.20;1.00;;;;;;5028250;28;20272;-75
2023/04/04 04:33:38;;;;;;;3.77;2.20;;;2.20;1.00;;;;;;5023833;28;20512;-75
2023/04/04 04:36:05;;;;;;;1.80;1.70;;;2.20;1.00;;;;;;5029625;28;20209;-76
2023/04/04 04:38:31;;;;;;;2.93;1.70;;;2.20;1.00;;;;;;5038191;28;20200;-75
2023/04/04 04:40:57;;;;;;;4.33;2.13;;;2.10;1.00;;;;;;5028743;28;20979;-76
2023/04/04 04:43:23;;;;;;;4.37;2.53;;;2.20;1.00;;;;;;5028751;28;20268;-75
2023/04/04 04:45:49;;;;;;;2.20;1.90;;;2.10;1.00;;;;;;5028031;28;20359;-75
2023/04/04 04:48:18;;;;;;;2.63;2.20;;;2.10;1.00;;;;;;5033808;28;20463;-75
2023/04/04 04:50:47;;;;;;;2.50;2.30;;;2.10;1.00;;;;;;5028510;28;20511;-75
2023/04/04 04:53:13;;;;;;;2.60;1.80;;;2.10;1.00;;;;;;5033695;28;20450;-75
2023/04/04 04:55:39;;;;;;;4.33;2.00;;;2.10;1.00;;;;;;5038567;28;20430;-75
2023/04/04 04:58:05;;;;;;;5.33;2.10;;;2.10;1.00;;;;;;5032076;28;20436;-75
2023/04/04 05:00:31;;;;;;;2.90;2.30;;;2.10;1.00;;;;;;5027758;28;20289;-75
2023/04/04 05:02:59;;;;;;;3.80;2.40;;;2.10;1.00;;;;;;5027240;28;20883;-75
2023/04/04 05:05:25;;;;;;;3.00;2.40;;;2.00;1.00;;;;;;5036140;28;20449;-76
2023/04/04 05:07:51;;;;;;;3.50;2.20;;;2.10;1.00;;;;;;5033550;28;20461;-75
2023/04/04 05:10:16;;;;;;;3.77;2.10;;;2.10;1.00;;;;;;5032185;28;20463;-75
2023/04/04 05:12:43;;;;;;;4.70;2.40;;;2.10;1.00;;;;;;5024463;28;20269;-76
2023/04/04 05:15:11;;;;;;;6.47;2.77;;;0.80;1.00;;;;;;5024898;28;20722;-75
2023/04/04 05:17:37;;;;;;;3.13;2.00;;;2.10;1.00;;;;;;5040521;28;20976;-75
2023/04/04 05:20:03;;;;;;;2.50;2.30;;;2.10;1.00;;;;;;5029243;28;20492;-75
2023/04/04 05:22:29;;;;;;;7.00;1.90;;;2.10;1.00;;;;;;5027276;28;20519;-76
2023/04/04 05:24:54;;;;;;;3.07;2.13;;;2.10;1.00;;;;;;5032863;28;20178;-76
2023/04/04 05:27:20;;;;;;;2.87;2.10;;;2.10;1.00;;;;;;5029424;28;20466;-76
2023/04/04 05:29:47;;;;;;;4.00;2.10;;;2.10;1.00;;;;;;5033257;28;20205;-75
2023/04/04 05:32:12;;;;;;;3.50;2.40;;;2.20;1.00;;;;;;5035967;28;20186;-75
2023/04/04 05:34:38;;;;;;;3.13;2.00;;;2.20;1.00;;;;;;5027962;28;20437;-75
2023/04/04 05:37:03;;;;;;;4.47;2.10;;;2.20;1.00;;;;;;5028207;28;20182;-77
2023/04/04 05:39:29;;;;;;;7.83;2.20;;;2.20;1.00;;;;;;5025388;28;20707;-76
2023/04/04 05:41:55;;;;;;;2.17;1.97;;;2.30;1.00;;;;;;5024264;28;20204;-76
2023/04/04 05:44:20;;;;;;;5.43;2.77;;;2.30;1.00;;;;;;5036210;28;20188;-76
2023/04/04 05:46:46;;;;;;;3.10;2.20;;;2.30;1.00;;;;;;5028278;28;20235;-76
2023/04/04 05:49:12;;;;;;;2.53;1.97;;;2.40;1.00;;;;;;5027465;28;20479;-76
2023/04/04 05:51:37;;;;;;;4.97;2.30;;;2.40;1.00;;;;;;5027726;28;20185;-75
2023/04/04 05:54:03;;;;;;;4.00;2.20;;;2.70;1.00;;;;;;5026992;28;20185;-75
2023/04/04 05:56:28;;;;;;;9.60;2.50;;;3.20;1.00;;;;;;5020603;28;20560;-77
2023/04/04 05:58:54;;;;;;;3.03;2.00;;;3.60;1.00;;;;;;5025098;28;20213;-78
2023/04/04 06:01:20;;;;;;;3.07;1.90;;;3.70;1.00;;;;;;5037333;28;20190;-75
2023/04/04 06:03:45;;;;;;;9.37;2.53;;;3.60;1.00;;;;;;5042535;28;20237;-74
2023/04/04 06:06:11;;;;;;;4.20;2.30;;;3.40;1.00;;;;;;5013918;28;20190;-73
2023/04/04 06:08:37;;;;;;;3.97;2.17;;;3.40;1.00;;;;;;5019494;28;20201;-73
2023/04/04 06:11:02;;;;;;;3.40;1.90;;;3.40;1.00;;;;;;5025678;28;20789;-73
2023/04/04 06:13:28;;;;;;;3.70;2.00;;;3.80;1.00;;;;;;5027467;28;20185;-73
2023/04/04 06:15:53;;;;;;;1.97;1.77;;;3.50;1.00;;;;;;5027117;28;20198;-73
2023/04/04 06:18:19;;;;;;;2.60;2.03;;;3.70;1.00;;;;;;5032787;28;20194;-73
2023/04/04 06:20:45;;;;;;;3.70;2.37;;;3.80;1.00;;;;;;5034071;28;20212;-73
2023/04/04 06:23:10;;;;;;;4.87;2.27;;;3.90;1.00;;;;;;5026965;28;20197;-72
2023/04/04 06:25:36;;;;;;;2.40;2.13;;;4.10;1.00;;;;;;5030943;28;20212;-73
2023/04/04 06:28:02;;;;;;;3.30;2.33;;;4.20;1.00;;;;;;5026330;28;20210;-74
2023/04/04 06:30:28;;;;;;;3.00;2.20;;;4.30;1.00;;;;;;5025407;28;20540;-72
2023/04/04 06:32:53;;;;;;;2.63;2.00;;;4.90;1.00;;;;;;5025201;28;20182;-72
2023/04/04 06:35:20;;;;;;;3.60;1.90;;;4.60;1.00;;;;;;5031398;28;20187;-72
2023/04/04 06:37:46;;;;;;;2.83;1.90;;;4.90;1.00;;;;;;5035043;28;20190;-72
2023/04/04 06:40:12;;;;;;;3.87;2.37;;;5.50;1.00;;;;;;5035344;28;20463;-72
2023/04/04 06:42:37;;;;;;;5.10;2.50;;;6.20;1.00;;;;;;5032259;28;21028;-72
2023/04/04 06:45:03;;;;;;;2.93;2.20;;;6.70;1.00;;;;;;5021882;28;20185;-72
2023/04/04 06:47:29;;;;;;;2.97;2.30;;;7.30;1.00;;;;;;5024824;28;20636;-74
2023/04/04 06:49:54;;;;;;;3.73;2.40;;;7.90;1.00;;;;;;5026421;28;20202;-72
2023/04/04 06:52:20;;;;;;;2.63;2.00;;;8.30;1.00;;;;;;5023717;28;20264;-73
2023/04/04 06:54:46;;;;;;;2.70;2.10;;;8.60;1.00;;;;;;5031459;28;20182;-72
2023/04/04 06:57:11;;;;;;;6.40;2.57;;;8.50;1.00;;;;;;5026475;28;20620;-74
2023/04/04 06:59:37;;;;;;;4.00;2.27;;;7.90;1.00;;;;;;5025726;28;20711;-71
2023/04/04 07:02:02;;;;;;;3.27;2.20;;;7.30;1.00;;;;;;5026072;28;20251;-72
2023/04/04 07:04:31;;;;;;;3.70;2.20;;;6.90;1.00;;;;;;5024852;28;20186;-72
2023/04/04 07:06:57;;;;;;;4.30;2.50;;;6.80;1.00;;;;;;5024917;28;20560;-73
2023/04/04 07:09:22;;;;;;;6.73;2.40;;;7.30;1.00;;;;;;5025382;28;20456;-71
2023/04/04 07:11:48;;;;;;;2.50;2.30;;;7.60;1.00;;;;;;5026682;28;20202;-72
2023/04/04 07:14:13;;;;;;;3.90;2.50;;;7.60;1.00;;;;;;5033843;28;20372;-72
2023/04/04 07:16:39;;;;;;;3.73;2.53;;;7.40;1.00;;;;;;5040575;28;20790;-73
2023/04/04 07:19:04;;;;;;;6.83;2.50;;;7.20;1.00;;;;;;5030652;28;20229;-73
2023/04/04 07:21:31;;;;;;;3.60;2.17;;;7.10;1.00;;;;;;5029190;28;20287;-72
2023/04/04 07:23:58;;;;;;;5.20;2.00;;;7.10;1.00;;;;;;5028993;28;20182;-72
2023/04/04 07:26:24;;;;;;;3.83;2.27;;;7.50;1.00;;;;;;5028082;28;20466;-72
2023/04/04 07:28:50;;;;;;;3.80;2.20;;;8.40;1.00;;;;;;5038157;28;20983;-72
2023/04/04 07:31:15;;;;;;;8.97;2.87;;;9.60;1.00;;;;;;5031019;28;20445;-72
2023/04/04 07:33:41;;;;;;;3.20;2.30;;;10.70;1.00;;;;;;5029875;28;20189;-74
2023/04/04 07:36:07;;;;;;;7.83;2.50;;;11.90;1.00;;;;;;5029910;28;20185;-72
2023/04/04 07:38:32;;;;;;;6.13;2.77;;;12.10;1.00;;;;;;5030078;28;20193;-71
2023/04/04 07:40:58;;;;;;;5.77;2.23;;;12.40;1.00;;;;;;5029898;28;20239;-71
2023/04/04 07:43:23;;;;;;;4.90;3.10;;;12.30;1.00;;;;;;5035548;28;20258;-74
2023/04/04 07:45:49;;;;;;;3.80;2.97;;;12.80;1.00;;;;;;5028158;28;20539;-72
2023/04/04 07:48:15;;;;;;;4.97;3.07;;;13.20;1.00;;;;;;5029090;28;20206;-71
2023/04/04 07:50:40;;;;;;;6.83;2.93;;;13.30;1.00;;;;;;5024095;28;20275;-75
2023/04/04 07:53:06;;;;;;;4.47;3.13;;;13.90;1.00;;;;;;5027436;28;20193;-72
2023/04/04 07:55:31;;;;;;;4.57;3.00;;;14.40;1.00;;;;;;5026633;28;20190;-71
2023/04/04 07:57:57;;;;;;;5.83;3.60;;;14.90;1.00;;;;;;5029042;28;20722;-72
2023/04/04 08:00:25;;;;;;;6.20;3.10;;;15.20;1.00;;;;;;5024160;28;20206;-72
2023/04/04 08:02:55;;;;;;;5.77;3.33;;;15.50;1.00;;;;;;5028826;28;20248;-74
2023/04/04 08:05:21;;;;;;;4.37;3.13;;;15.30;1.00;;;;;;5029064;28;20448;-75
2023/04/04 08:07:46;;;;;;;7.73;3.10;;;14.80;1.00;;;;;;5026507;28;20464;-72
2023/04/04 08:10:12;;;;;;;6.00;3.20;;;14.90;1.00;;;;;;5030508;28;20292;-72
2023/04/04 08:12:38;;;;;;;5.57;3.40;;;15.30;1.00;;;;;;5023975;28;20213;-72
2023/04/04 08:15:04;;;;;;;6.17;3.40;;;15.50;1.00;;;;;;5025474;28;20186;-72
2023/04/04 08:17:30;;;;;;;5.70;3.50;;;15.60;1.00;;;;;;5028504;28;20194;-73
2023/04/04 08:19:56;;;;;;;4.63;3.40;;;15.80;1.00;;;;;;5028415;28;20484;-75
2023/04/04 08:22:21;;;;;;;7.20;3.10;;;15.70;1.00;;;;;;5037101;28;20185;-74
2023/04/04 08:24:47;;;;;;;4.63;3.40;;;15.30;1.00;;;;;;5026339;28;20284;-73
2023/04/04 08:27:14;;;;;;;4.27;3.00;;;15.10;1.00;;;;;;5030947;28;20285;-73
2023/04/04 08:29:40;;;;;;;8.00;3.40;;;15.60;1.00;;;;;;5028451;28;20197;-73
2023/04/04 08:32:06;;;;;;;5.53;3.47;;;16.30;1.00;;;;;;5026560;28;20432;-74
2023/04/04 08:34:31;;;;;;;4.07;2.90;;;16.80;1.00;;;;;;5033357;28;20212;-73
2023/04/04 08:36:57;;;;;;;4.63;3.10;;;17.40;1.00;;;;;;5028972;28;20284;-73
2023/04/04 08:39:23;;;;;;;4.97;3.33;;;17.50;1.00;;;;;;5027439;28;20206;-73
2023/04/04 08:41:57;;;;;;;7.10;3.80;;;17.80;1.00;;;;;;5029579;28;20270;-74
2023/04/04 08:44:25;;;;;;;5.90;3.80;;;17.90;1.00;;;;;;5037177;28;20210;-74
2023/04/04 08:46:51;;;;;;;5.10;3.20;;;17.80;1.00;;;;;;5027430;28;20448;-72
2023/04/04 08:49:20;;;;;;;5.53;4.00;;;19.10;1.00;;;;;;5026867;28;20460;-71
2023/04/04 08:51:48;;;;;;;5.50;4.00;;;19.00;1.00;;;;;;5028067;28;20730;-72
2023/04/04 08:54:15;;;;;;;4.93;3.97;;;19.00;1.00;;;;;;5026958;28;20823;-73
2023/04/04 08:56:40;;;;;;;4.90;3.43;;;18.80;1.00;;;;;;5032013;28;20823;-73
2023/04/04 08:59:06;;;;;;;5.53;3.30;;;18.70;1.00;;;;;;5023003;28;20642;-73
2023/04/04 09:01:32;;;;;;;10.50;3.20;;;18.80;1.00;;;;;;5027726;28;20639;-74
2023/04/04 09:03:59;;;;;;;5.70;3.30;;;18.10;1.00;;;;;;5024395;28;20604;-72
2023/04/04 09:06:25;;;;;;;3.60;2.70;;;17.50;1.00;;;;;;5035658;28;20548;-74
2023/04/04 09:08:52;;;;;;;4.50;3.30;;;18.40;1.00;;;;;;5040048;28;20466;-74
2023/04/04 09:11:20;;;;;;;6.60;3.47;;;19.40;1.00;;;;;;5032219;28;20447;-72
2023/04/04 09:13:49;;;;;;;5.57;3.10;;;19.70;1.00;;;;;;5025155;28;20496;-75
2023/04/04 09:16:15;;;;;;;6.23;3.33;;;20.10;1.00;;;;;;5028564;28;20930;-72
2023/04/04 09:18:41;;;;;;;6.03;3.43;;;20.00;1.00;;;;;;5040060;28;20453;-73
2023/04/04 09:21:11;;;;;;;5.30;3.13;;;20.10;1.00;;;;;;5039894;28;20439;-74
2023/04/04 09:23:37;;;;;;;4.40;2.67;;;19.70;1.00;;;;;;5045317;28;20463;-74
2023/04/04 09:26:03;;;;;;;5.10;2.80;;;19.80;1.00;;;;;;5036890;28;20424;-74
2023/04/04 09:28:29;;;;;;;4.43;2.90;;;20.30;1.00;;;;;;5046707;28;20465;-74
2023/04/04 09:30:54;;;;;;;5.80;3.10;;;20.40;1.00;;;;;;5048610;28;20697;-74
2023/04/04 09:33:22;;;;;;;5.67;3.10;;;21.50;1.00;;;;;;5031886;28;20700;-74
2023/04/04 09:35:54;;;;;;;6.80;3.30;;;21.40;1.00;;;;;;5035534;28;20177;-74
2023/04/04 09:38:22;;;;;;;6.43;3.10;;;21.20;1.00;;;;;;5029212;28;20949;-74
2023/04/04 09:40:48;;;;;;;7.13;3.40;;;21.10;1.00;;;;;;5086575;22;20487;-74
2023/04/04 09:45:50;;;;;;;8.97;3.30;;;20.80;1.00;;;;;;5191409;22;20982;-75
2023/04/04 09:48:52;;;;;;;4.63;3.00;;;20.90;1.00;;;;;;5010177;28;20474;-75
2023/04/04 09:51:18;;;;;;;4.60;3.20;;;21.40;1.00;;;;;;4991035;28;20560;-75
2023/04/04 09:53:48;;;;;;;4.20;3.20;;;21.10;1.00;;;;;;5006094;28;20421;-75
2023/04/04 10:16:55;;;;;;;4.50;3.17;;;24.60;1.00;;;;;;5590745;22;20885;-74
2023/04/04 10:19:21;;;;;;;5.43;3.17;;;24.70;1.00;;;;;;5029454;28;20497;-74
2023/04/04 10:21:47;;;;;;;4.97;3.00;;;24.70;1.00;;;;;;5020573;28;20424;-74
2023/04/04 10:24:13;;;;;;;5.27;3.10;;;24.70;1.00;;;;;;5012685;28;20399;-74
2023/04/04 10:26:38;;;;;;;4.30;3.10;;;25.00;1.00;;;;;;5017098;28;20651;-74
2023/04/04 10:29:04;;;;;;;6.27;4.30;;;26.20;1.00;;;;;;5015489;28;20270;-74
2023/04/04 10:31:32;;;;;;;6.37;3.40;;;26.10;1.00;;;;;;5080066;22;20225;-74
2023/04/04 10:34:12;;;;;;;6.70;3.30;;;26.00;1.00;;;;;;5027805;28;20188;-75
2023/04/04 10:36:50;;;;;;;4.40;2.63;;;27.00;1.00;;;;;;5028180;28;20200;-75
2023/04/04 10:39:45;;;;;;;4.13;2.60;;;26.80;1.00;;;;;;5026638;28;20188;-74
2023/04/04 10:42:14;;;;;;;4.83;3.00;;;26.90;1.00;;;;;;5023744;28;20205;-75
2023/04/04 10:44:40;;;;;;;4.57;2.97;;;27.40;1.00;;;;;;5038517;28;20671;-75
2023/04/04 10:47:21;;;;;;;4.87;3.33;;;26.40;1.00;;;;;;5016091;28;20579;-75
2023/04/04 10:49:49;;;;;;;5.00;2.87;;;26.40;1.00;;;;;;5041320;28;20230;-75
2023/04/04 10:52:20;;;;;;;5.50;3.40;;;26.70;1.00;;;;;;5024536;28;20287;-74
2023/04/04 10:54:51;;;;;;;4.20;3.10;;;25.70;1.00;;;;;;5047990;28;20272;-75
2023/04/04 10:57:17;;;;;;;5.73;3.50;;;25.60;1.00;;;;;;5040743;28;20646;-74
2023/04/04 11:00:00;;;;;;;5.10;3.00;;;25.10;1.00;;;;;;5033776;28;20181;-75
2023/04/04 11:02:44;;;;;;;4.60;3.10;;;25.60;1.00;;;;;;5024440;28;20173;-76
2023/04/04 11:05:14;;;;;;;4.83;2.80;;;26.60;1.00;;;;;;5029403;28;20427;-75
2023/04/04 11:07:40;;;;;;;4.90;3.30;;;27.20;1.00;;;;;;5028103;28;20205;-76
2023/04/04 11:10:20;;;;;;;4.15;2.90;;;27.70;1.00;;;;;;5019699;28;20079;-74
2023/04/04 11:12:53;;;;;;;4.30;2.80;;;26.50;1.00;;;;;;5020463;28;20268;-74
2023/04/04 11:15:21;;;;;;;4.63;3.33;;;26.00;1.00;;;;;;5020263;28;20193;-73
2023/04/04 11:18:05;;;;;;;5.60;3.23;;;26.40;1.00;;;;;;5026786;28;20192;-73
2023/04/04 11:20:37;;;;;;;5.50;3.20;;;26.70;1.00;;;;;;5036768;28;20231;-72
2023/04/04 11:23:07;;;;;;;5.13;2.90;;;26.60;1.00;;;;;;5021841;28;20208;-74
2023/04/04 11:25:38;;;;;;;8.23;3.10;;;27.10;1.00;;;;;;5019638;28;20181;-72
2023/04/04 11:28:24;;;;;;;5.10;3.07;;;27.50;1.00;;;;;;5031310;28;20210;-73
2023/04/04 11:31:19;;;;;;;6.80;2.90;;;28.50;1.00;;;;;;5033515;28;20214;-74
2023/04/04 11:34:06;;;;;;;7.03;3.07;;;28.90;1.00;;;;;;5020419;28;20223;-73
2023/04/04 11:36:34;;;;;;;5.43;3.08;;;29.40;1.00;;;;;;5030651;28;20211;-73
2023/04/04 11:39:11;;;;;;;9.02;3.28;;;29.70;1.00;;;;;;5016784;28;20181;-74
2023/04/04 11:42:05;;;;;;;4.45;3.35;;;29.40;1.00;;;;;;5025157;28;20200;-73
2023/04/04 11:44:33;;;;;;;5.10;3.07;;;27.90;1.00;;;;;;5023660;28;20590;-73
2023/04/04 11:47:09;;;;;;;10.40;3.37;;;26.40;1.00;;;;;;5025721;28;20181;-73
2023/04/04 11:49:42;;;;;;;5.23;2.83;;;26.20;1.00;;;;;;5027220;28;20184;-73
2023/04/04 11:52:12;;;;;;;4.80;3.10;;;26.20;1.00;;;;;;5032947;28;20284;-73
2023/04/04 11:54:39;;;;;;;4.90;3.10;;;26.50;1.00;;;;;;5025426;28;20257;-73
2023/04/04 11:57:10;;;;;;;5.17;3.30;;;27.60;1.00;;;;;;5025859;28;20647;-73
2023/04/04 11:59:40;;;;;;;4.00;2.77;;;28.80;1.00;;;;;;5033981;28;20186;-74
2023/04/04 12:02:07;;;;;;;4.10;2.80;;;29.60;1.00;;;;;;5025954;28;20204;-74
2023/04/04 12:04:34;;;;;;;6.10;3.30;;;30.20;1.00;;;;;;5021757;28;20224;-74
2023/04/04 12:07:01;;;;;;;5.45;3.95;;;30.00;1.00;;;;;;5020219;28;20185;-74
2023/04/04 12:09:27;;;;;;;5.07;3.05;;;30.00;1.00;;;;;;5033479;28;20182;-74
2023/04/04 12:11:54;;;;;;;4.75;2.92;;;29.70;1.00;;;;;;5035480;28;20204;-74
2023/04/04 12:14:21;;;;;;;5.57;2.97;;;30.00;1.00;;;;;;5034845;28;20238;-74
2023/04/04 12:16:48;;;;;;;5.10;2.90;;;30.40;1.00;;;;;;5028830;28;20209;-74
2023/04/04 12:19:15;;;;;;;5.35;3.05;;;30.40;1.00;;;;;;5039794;28;20190;-74
2023/04/04 12:21:41;;;;;;;4.45;2.90;;;30.90;1.00;;;;;;5026215;28;20207;-74
2023/04/04 12:24:08;;;;;;;4.60;3.00;;;31.00;1.00;;;;;;5034423;28;20732;-74
2023/04/04 12:26:38;;;;;;;4.45;3.05;;;31.00;1.00;;;;;;5020749;28;20197;-74
2023/04/04 12:29:04;;;;;;;5.38;3.00;;;30.40;1.00;;;;;;5015966;28;20205;-74
2023/04/04 12:31:31;;;;;;;5.55;3.35;;;30.60;1.00;;;;;;5020650;28;20216;-74
2023/04/04 12:33:58;;;;;;;5.25;3.15;;;28.90;1.00;;;;;;5016269;28;20189;-74
2023/04/04 12:36:25;;;;;;;6.97;2.72;;;27.70;1.00;;;;;;5028048;28;20264;-74
2023/04/04 12:39:06;;;;;;;4.50;3.00;;;26.20;1.00;;;;;;5014675;28;20189;-74
2023/04/04 12:41:34;;;;;;;6.83;3.17;;;27.30;1.00;;;;;;5039312;28;20204;-75
2023/04/04 12:44:04;;;;;;;4.80;2.97;;;27.80;1.00;;;;;;5023770;28;20193;-74
2023/04/04 12:46:41;;;;;;;4.03;2.70;;;28.70;1.00;;;;;;5022605;28;20568;-74
2023/04/04 12:49:10;;;;;;;5.57;3.33;;;29.20;1.00;;;;;;5026214;28;20260;-74
2023/04/04 12:51:37;;;;;;;4.80;2.97;;;30.10;1.00;;;;;;5022763;28;20682;-74
2023/04/04 12:54:06;;;;;;;3.97;2.92;;;30.60;1.00;;;;;;5032631;28;20190;-75
2023/04/04 12:56:35;;;;;;;5.65;3.22;;;30.60;1.00;;;;;;5016358;28;20181;-75
2023/04/04 12:59:02;;;;;;;3.90;3.10;;;30.00;1.00;;;;;;5024694;28;20185;-75
2023/04/04 13:01:32;;;;;;;4.65;3.35;;;29.30;1.00;;;;;;5022175;28;20231;-74
2023/04/04 13:04:03;;;;;;;6.78;3.33;;;29.00;1.00;;;;;;5024698;28;20671;-74
2023/04/04 13:06:30;;;;;;;4.28;3.13;;;27.80;1.00;;;;;;5029645;28;20185;-76
2023/04/04 13:08:56;;;;;;;7.07;3.33;;;27.20;1.00;;;;;;5027386;28;20271;-74
2023/04/04 13:11:23;;;;;;;5.00;3.17;;;26.00;1.00;;;;;;5025190;28;20197;-74
2023/04/04 13:14:01;;;;;;;8.00;3.13;;;25.20;1.00;;;;;;5024933;28;20181;-74
2023/04/04 13:16:31;;;;;;;4.83;3.13;;;24.80;1.00;;;;;;5020955;28;20203;-74
2023/04/04 13:18:57;;;;;;;4.57;2.87;;;26.30;1.00;;;;;;5017360;28;20185;-75
2023/04/04 13:21:23;;;;;;;4.07;2.83;;;28.30;1.00;;;;;;5031537;28;20207;-74
2023/04/04 13:23:49;;;;;;;4.87;3.03;;;28.60;1.00;;;;;;5013573;28;20220;-74
2023/04/04 13:26:15;;;;;;;5.50;3.08;;;29.60;1.00;;;;;;5033237;28;20560;-74
2023/04/04 13:28:40;;;;;;;4.57;2.95;;;29.90;1.00;;;;;;5020352;28;20232;-75